Time;durP1;ratioP1;P1;durP2;ratioP2;P2;SDS_P1;SDS_P2;PMS_P1;PMS_P2;Temp;Humidity;BMP_temperature;BMP_pressure;BME280_temperature;BME280_humidity;BME280_pressure;Samples;Min_cycle;Max_cycle;Signal;HPM_P1;HPM_P2
2023/04/05 00:01:33;;;;;;;12.95;8.45;;;5.40;1.00;;;;;;5119612;28;20032;-62
2023/04/05 00:04:03;;;;;;;14.07;8.43;;;5.50;1.00;;;;;;5120417;28;20032;-61
2023/04/05 00:06:30;;;;;;;13.00;7.90;;;5.50;1.00;;;;;;5119295;28;20140;-61
2023/04/05 00:09:00;;;;;;;11.38;8.13;;;5.40;1.00;;;;;;5119278;28;20308;-61
2023/04/05 00:11:31;;;;;;;13.82;8.40;;;5.40;1.00;;;;;;5120978;28;20399;-62
2023/04/05 00:13:59;;;;;;;12.55;8.40;;;5.30;1.00;;;;;;5120106;28;20297;-61
2023/04/05 00:16:27;;;;;;;16.33;9.02;;;5.20;1.00;;;;;;5120004;28;20027;-61
2023/04/05 00:18:54;;;;;;;13.07;8.18;;;5.20;1.00;;;;;;5119147;28;20412;-62
2023/04/05 00:21:22;;;;;;;16.60;8.20;;;5.10;4.80;;;;;;5120251;28;20427;-62
2023/04/05 00:23:52;;;;;;;13.93;8.85;;;5.10;8.10;;;;;;5068665;28;20385;-61
2023/04/05 00:26:19;;;;;;;11.90;8.38;;;5.10;8.50;;;;;;5120407;28;20042;-61
2023/04/05 00:28:48;;;;;;;16.48;8.32;;;5.10;11.70;;;;;;5118828;28;20070;-62
2023/04/05 00:31:15;;;;;;;13.48;8.18;;;5.10;12.70;;;;;;5119568;28;20367;-62
2023/04/05 00:33:41;;;;;;;14.15;8.57;;;5.00;12.60;;;;;;5119605;28;20024;-62
2023/04/05 00:36:15;;;;;;;12.13;7.75;;;5.10;11.30;;;;;;5118906;28;20035;-62
2023/04/05 00:38:42;;;;;;;13.40;8.63;;;5.00;13.00;;;;;;5118798;28;20039;-61
2023/04/05 00:41:10;;;;;;;10.43;7.72;;;5.00;14.70;;;;;;5119757;28;20098;-62
2023/04/05 00:43:35;;;;;;;14.07;8.45;;;5.00;13.80;;;;;;5118735;28;20288;-62
2023/04/05 00:46:02;;;;;;;13.27;8.55;;;4.80;19.70;;;;;;5118586;28;20046;-62
2023/04/05 00:48:28;;;;;;;15.20;8.30;;;4.70;27.10;;;;;;5119251;28;20055;-61
2023/04/05 00:50:55;;;;;;;15.50;8.52;;;4.70;25.10;;;;;;5118583;28;20340;-62
2023/04/05 00:53:21;;;;;;;13.77;8.98;;;4.70;24.30;;;;;;5118407;28;20035;-62
2023/04/05 00:55:47;;;;;;;14.02;8.93;;;4.70;25.90;;;;;;5118111;28;20019;-62
2023/04/05 00:58:18;;;;;;;14.60;8.98;;;4.70;25.50;;;;;;5118462;28;20346;-62
2023/04/05 01:01:05;;;;;;;12.52;8.20;;;4.80;25.80;;;;;;5118534;28;20031;-62
2023/04/05 01:03:33;;;;;;;14.40;8.73;;;4.80;26.20;;;;;;5119279;28;20045;-61
2023/04/05 01:06:03;;;;;;;13.57;9.15;;;4.80;27.80;;;;;;5118368;28;20081;-62
2023/04/05 01:09:07;;;;;;;11.38;8.40;;;4.80;26.50;;;;;;5118163;28;20115;-61
2023/04/05 01:11:36;;;;;;;13.32;9.43;;;4.60;29.50;;;;;;5118084;28;20023;-61
2023/04/05 01:14:02;;;;;;;13.98;9.23;;;4.50;28.20;;;;;;5118825;28;20032;-62
2023/04/05 01:16:28;;;;;;;15.02;8.13;;;4.40;32.40;;;;;;5118836;28;20042;-62
2023/04/05 01:18:55;;;;;;;14.40;9.02;;;4.40;35.40;;;;;;5117901;28;20024;-62
2023/04/05 01:21:33;;;;;;;15.00;9.07;;;4.50;34.50;;;;;;5118700;27;20254;-61
2023/04/05 01:24:08;;;;;;;15.23;9.07;;;4.60;30.20;;;;;;5118633;28;20019;-62
2023/04/05 01:26:40;;;;;;;16.70;9.75;;;4.60;30.70;;;;;;5118564;28;20345;-61
2023/04/05 01:29:23;;;;;;;13.98;8.50;;;4.60;33.00;;;;;;5117817;28;20030;-61
2023/04/05 01:32:08;;;;;;;17.10;8.68;;;4.40;34.80;;;;;;5117670;28;20026;-62
2023/04/05 01:34:52;;;;;;;14.75;9.27;;;4.40;42.40;;;;;;5117625;28;20352;-62
2023/04/05 01:37:21;;;;;;;13.50;9.02;;;4.30;40.80;;;;;;5118449;28;20078;-62
2023/04/05 01:39:49;;;;;;;15.23;9.52;;;4.30;40.80;;;;;;5118362;28;20030;-62
2023/04/05 01:42:22;;;;;;;13.70;9.38;;;4.40;46.30;;;;;;5117583;28;20063;-62
2023/04/05 01:44:49;;;;;;;15.50;9.18;;;4.40;42.20;;;;;;5117600;28;20063;-63
2023/04/05 01:47:15;;;;;;;14.45;9.30;;;4.30;40.20;;;;;;5100497;28;20036;-62
2023/04/05 01:49:41;;;;;;;16.30;8.90;;;4.30;42.50;;;;;;5117392;28;20027;-62
2023/04/05 01:52:10;;;;;;;15.27;9.55;;;4.20;43.00;;;;;;5100369;28;20169;-62
2023/04/05 01:54:36;;;;;;;14.82;8.57;;;4.20;44.30;;;;;;5117273;28;20130;-62
2023/04/05 01:57:02;;;;;;;14.73;9.20;;;4.10;44.90;;;;;;5117181;28;20062;-61
2023/04/05 01:59:28;;;;;;;16.15;9.73;;;4.10;46.70;;;;;;5117198;28;20028;-62
2023/04/05 02:01:54;;;;;;;14.07;8.85;;;4.10;46.10;;;;;;5100243;28;20430;-61
2023/04/05 02:04:19;;;;;;;16.60;9.45;;;4.10;48.90;;;;;;5117130;28;20040;-62
2023/04/05 02:06:45;;;;;;;13.30;8.93;;;4.00;49.90;;;;;;5116894;28;20400;-62
2023/04/05 02:09:11;;;;;;;15.02;9.43;;;4.00;49.40;;;;;;5117353;28;20092;-62
2023/04/05 02:11:37;;;;;;;16.70;9.80;;;4.00;49.70;;;;;;5118279;28;20372;-62
2023/04/05 02:14:03;;;;;;;16.58;9.93;;;4.00;52.00;;;;;;5100116;28;20035;-62
2023/04/05 02:16:32;;;;;;;15.55;9.55;;;4.00;52.60;;;;;;5117085;28;20028;-62
2023/04/05 02:19:01;;;;;;;16.02;9.52;;;4.10;46.90;;;;;;5100392;28;20035;-62
2023/04/05 02:21:27;;;;;;;17.90;9.45;;;4.10;47.30;;;;;;5116793;28;20035;-62
2023/04/05 02:23:53;;;;;;;14.52;9.60;;;4.00;48.90;;;;;;5117679;28;20304;-62
2023/04/05 02:26:20;;;;;;;17.08;9.68;;;3.90;50.80;;;;;;5117563;28;20106;-62
2023/04/05 02:28:46;;;;;;;19.50;9.80;;;3.80;52.70;;;;;;5117364;28;20304;-62
2023/04/05 02:31:13;;;;;;;16.52;9.23;;;3.80;53.60;;;;;;5116733;28;20043;-61
2023/04/05 02:33:41;;;;;;;15.65;10.35;;;3.80;54.80;;;;;;5117461;28;20055;-62
2023/04/05 02:36:09;;;;;;;17.33;10.52;;;3.70;56.20;;;;;;5116771;28;20380;-62
2023/04/05 02:38:35;;;;;;;14.90;9.80;;;3.70;55.20;;;;;;5116899;28;20412;-62
2023/04/05 02:41:01;;;;;;;17.10;9.57;;;3.80;55.90;;;;;;5117191;28;20042;-62
2023/04/05 02:43:27;;;;;;;16.02;10.10;;;3.70;58.50;;;;;;5117341;28;20120;-62
2023/04/05 02:45:53;;;;;;;16.23;9.30;;;3.70;56.90;;;;;;5117358;28;20027;-63
2023/04/05 02:48:20;;;;;;;14.77;9.60;;;3.70;53.50;;;;;;5117104;28;20038;-62
2023/04/05 02:50:48;;;;;;;15.75;10.23;;;3.60;56.20;;;;;;5116529;28;20051;-62
2023/04/05 02:53:15;;;;;;;16.88;10.15;;;3.50;61.40;;;;;;5099484;28;20064;-62
2023/04/05 02:55:41;;;;;;;13.98;9.77;;;3.60;60.40;;;;;;5116345;28;20084;-62
2023/04/05 02:58:07;;;;;;;17.48;10.48;;;3.40;62.80;;;;;;5099597;28;20031;-62
2023/04/05 03:00:39;;;;;;;18.43;10.10;;;3.40;67.40;;;;;;5116415;28;20032;-62
2023/04/05 03:03:06;;;;;;;15.23;9.52;;;3.40;67.10;;;;;;5116332;28;20545;-62
2023/04/05 03:05:35;;;;;;;16.73;10.30;;;3.30;67.90;;;;;;5116325;28;20035;-62
2023/04/05 03:08:01;;;;;;;20.63;10.10;;;3.30;70.10;;;;;;5116279;28;20039;-62
2023/04/05 03:10:33;;;;;;;13.43;9.35;;;3.20;70.70;;;;;;5116239;28;20039;-62
2023/04/05 03:13:04;;;;;;;15.55;9.82;;;3.20;68.20;;;;;;5116364;28;20308;-62
2023/04/05 03:15:31;;;;;;;16.40;9.88;;;3.20;68.60;;;;;;5099789;28;20028;-62
2023/04/05 03:18:00;;;;;;;15.00;9.23;;;3.20;71.30;;;;;;5116172;28;20028;-62
2023/04/05 03:20:26;;;;;;;17.45;10.63;;;3.30;68.80;;;;;;5119963;28;20034;-62
2023/04/05 03:23:00;;;;;;;18.55;10.10;;;3.40;64.70;;;;;;5103901;28;20114;-62
2023/04/05 03:25:30;;;;;;;15.20;10.27;;;3.40;65.80;;;;;;5120215;28;20028;-62
2023/04/05 03:27:57;;;;;;;15.77;10.35;;;3.40;62.70;;;;;;5120061;28;20035;-62
2023/04/05 03:30:28;;;;;;;17.10;10.57;;;3.30;64.90;;;;;;5120316;28;20305;-62
2023/04/05 03:33:01;;;;;;;18.27;10.05;;;3.30;66.10;;;;;;5119983;28;20039;-62
2023/04/05 03:35:40;;;;;;;16.70;10.30;;;3.30;63.90;;;;;;5105210;28;20409;-62
2023/04/05 03:38:08;;;;;;;16.42;10.30;;;3.30;65.30;;;;;;5120021;28;20027;-62
2023/04/05 03:40:38;;;;;;;17.95;10.88;;;3.20;67.90;;;;;;5119959;28;20035;-62
2023/04/05 03:43:07;;;;;;;15.43;10.32;;;3.20;68.80;;;;;;5119680;28;20055;-62
2023/04/05 03:45:33;;;;;;;16.83;10.68;;;3.10;70.10;;;;;;5102771;28;20035;-62
2023/04/05 03:48:01;;;;;;;18.52;10.40;;;3.20;69.50;;;;;;5119559;28;20027;-62
2023/04/05 03:50:28;;;;;;;15.32;9.88;;;3.20;71.40;;;;;;5119768;28;20271;-62
2023/04/05 03:52:54;;;;;;;17.98;10.93;;;3.20;68.20;;;;;;5119679;28;20036;-62
2023/04/05 03:55:20;;;;;;;15.48;10.52;;;3.00;72.60;;;;;;5119590;28;20277;-62
2023/04/05 03:57:47;;;;;;;18.70;11.05;;;3.00;77.10;;;;;;5119566;28;20408;-62
2023/04/05 04:00:23;;;;;;;17.13;11.15;;;2.90;80.10;;;;;;5119572;28;20119;-62
2023/04/05 04:03:08;;;;;;;17.63;10.27;;;2.90;78.70;;;;;;5119640;28;20035;-62
2023/04/05 04:05:37;;;;;;;19.00;11.32;;;2.90;83.10;;;;;;5119427;28;20036;-62
2023/04/05 04:08:05;;;;;;;17.63;11.05;;;2.80;83.30;;;;;;5119243;28;20031;-63
2023/04/05 04:10:31;;;;;;;15.23;10.73;;;2.90;83.50;;;;;;5119298;28;20027;-63
2023/04/05 04:12:57;;;;;;;17.30;11.20;;;3.00;80.50;;;;;;5102370;28;20282;-63
2023/04/05 04:15:28;;;;;;;21.40;12.55;;;3.10;77.40;;;;;;5119265;28;20308;-63
2023/04/05 04:18:12;;;;;;;17.67;11.82;;;3.10;79.90;;;;;;5120512;28;20063;-62
2023/04/05 04:21:05;;;;;;;19.88;11.90;;;3.10;77.70;;;;;;5119774;28;20042;-63
2023/04/05 04:23:59;;;;;;;16.30;11.75;;;3.00;79.80;;;;;;5104035;28;20071;-63
2023/04/05 04:26:53;;;;;;;18.83;11.95;;;3.00;79.60;;;;;;5119902;28;20129;-63
2023/04/05 04:29:45;;;;;;;20.67;13.23;;;3.10;75.70;;;;;;5119693;28;20386;-63
2023/04/05 04:35:37;;;;;;;18.08;12.55;;;3.10;74.20;;;;;;5098178;28;20048;-63
2023/04/05 04:38:24;;;;;;;19.70;13.10;;;3.10;77.10;;;;;;5088084;28;20032;-63
2023/04/05 04:41:18;;;;;;;19.90;12.50;;;3.00;79.00;;;;;;5119806;28;20055;-63
2023/04/05 04:43:49;;;;;;;18.75;12.68;;;2.90;79.30;;;;;;5119424;28;20028;-62
2023/04/05 04:46:33;;;;;;;19.95;11.43;;;3.00;79.40;;;;;;5118739;28;20035;-63
2023/04/05 04:49:05;;;;;;;22.77;12.48;;;3.00;79.60;;;;;;5119449;28;20186;-63
2023/04/05 04:51:37;;;;;;;17.38;12.40;;;3.00;77.30;;;;;;5119297;28;20051;-63
2023/04/05 04:54:03;;;;;;;19.58;13.05;;;3.00;77.00;;;;;;5119301;28;20053;-63
2023/04/05 04:56:29;;;;;;;21.05;12.75;;;3.00;77.90;;;;;;5118462;28;20373;-63
2023/04/05 04:58:57;;;;;;;19.23;13.57;;;3.00;77.40;;;;;;5119119;28;20103;-63
2023/04/05 05:01:23;;;;;;;20.88;13.60;;;3.00;79.90;;;;;;5119044;28;20169;-62
2023/04/05 05:03:50;;;;;;;17.73;13.05;;;3.00;78.50;;;;;;5118450;28;20394;-63
2023/04/05 05:06:23;;;;;;;23.90;14.48;;;3.00;79.90;;;;;;5118273;28;20038;-63
2023/04/05 05:08:49;;;;;;;20.48;12.85;;;3.00;80.00;;;;;;5119002;28;20069;-63
2023/04/05 05:11:15;;;;;;;19.05;13.38;;;2.90;80.90;;;;;;5118877;28;20032;-63
2023/04/05 05:13:41;;;;;;;21.35;13.20;;;2.80;81.70;;;;;;5117999;28;20039;-63
2023/04/05 05:16:10;;;;;;;23.30;12.77;;;2.80;84.30;;;;;;5101323;28;20035;-63
2023/04/05 05:18:36;;;;;;;23.67;12.75;;;2.80;81.80;;;;;;5118647;28;20106;-65
2023/04/05 05:21:01;;;;;;;22.13;12.90;;;2.80;83.70;;;;;;5101120;28;20114;-63
2023/04/05 05:23:27;;;;;;;22.13;12.80;;;2.80;83.00;;;;;;5118800;28;20039;-63
2023/04/05 05:25:59;;;;;;;24.10;13.90;;;2.90;84.00;;;;;;5118587;28;20096;-63
2023/04/05 05:28:28;;;;;;;21.00;12.88;;;2.90;83.30;;;;;;5118530;28;20100;-63
2023/04/05 05:30:54;;;;;;;19.92;12.35;;;2.90;80.90;;;;;;5118966;28;20379;-63
2023/04/05 05:33:24;;;;;;;21.95;12.38;;;2.90;81.30;;;;;;5118119;28;20058;-63
2023/04/05 05:35:51;;;;;;;20.20;12.45;;;2.90;82.30;;;;;;5118511;27;20365;-63
2023/04/05 05:38:17;;;;;;;22.38;12.85;;;2.90;82.80;;;;;;5117775;28;20035;-63
2023/04/05 05:40:43;;;;;;;21.38;13.05;;;2.90;82.30;;;;;;5100625;28;20038;-63
2023/04/05 05:43:09;;;;;;;21.75;13.88;;;2.90;85.20;;;;;;5118189;28;20051;-63
2023/04/05 05:45:36;;;;;;;24.08;13.80;;;3.00;84.00;;;;;;5118440;28;20111;-63
2023/04/05 05:48:01;;;;;;;21.20;12.50;;;3.00;81.70;;;;;;5118300;28;20036;-63
2023/04/05 05:50:31;;;;;;;22.88;13.00;;;3.10;82.60;;;;;;5118196;28;20038;-62
2023/04/05 05:52:58;;;;;;;22.13;12.70;;;3.10;82.50;;;;;;5118095;28;20087;-62
2023/04/05 05:55:24;;;;;;;22.00;13.18;;;3.10;83.00;;;;;;5117232;28;20344;-62
2023/04/05 05:57:51;;;;;;;21.40;13.25;;;3.20;79.40;;;;;;5117953;28;20036;-62
2023/04/05 06:00:18;;;;;;;22.58;13.15;;;3.30;77.50;;;;;;5117910;28;20035;-62
2023/04/05 06:02:45;;;;;;;20.02;13.65;;;3.30;76.70;;;;;;5118384;28;20521;-62
2023/04/05 06:05:11;;;;;;;24.90;14.48;;;3.30;80.50;;;;;;5117043;28;20039;-63
2023/04/05 06:07:37;;;;;;;24.52;15.20;;;3.50;79.00;;;;;;5117696;28;20027;-63
2023/04/05 06:10:05;;;;;;;22.40;13.75;;;3.40;78.60;;;;;;5117761;28;20058;-62
2023/04/05 06:12:30;;;;;;;23.42;14.32;;;3.40;80.10;;;;;;5117717;28;20338;-62
2023/04/05 06:14:56;;;;;;;29.35;14.88;;;3.50;80.90;;;;;;5117372;28;20027;-62
2023/04/05 06:17:22;;;;;;;24.17;13.73;;;3.60;78.40;;;;;;5117565;28;20436;-62
2023/04/05 06:19:48;;;;;;;22.65;14.65;;;3.70;77.70;;;;;;5116870;28;20023;-63
2023/04/05 06:22:14;;;;;;;23.20;15.00;;;3.80;76.30;;;;;;5117499;28;20042;-62
2023/04/05 06:24:40;;;;;;;23.60;15.02;;;3.90;76.70;;;;;;5117990;28;20038;-62
2023/04/05 06:27:05;;;;;;;20.23;14.43;;;3.90;76.30;;;;;;5117982;28;20062;-62
2023/04/05 06:29:31;;;;;;;24.70;15.30;;;4.00;75.10;;;;;;5117724;28;20044;-61
2023/04/05 06:31:57;;;;;;;28.83;15.95;;;4.10;72.80;;;;;;5117721;28;20266;-62
2023/04/05 06:34:23;;;;;;;23.65;15.30;;;4.20;72.70;;;;;;5116561;28;20028;-62
2023/04/05 06:36:49;;;;;;;22.52;14.68;;;4.30;71.30;;;;;;5117892;28;20024;-62
2023/04/05 06:39:15;;;;;;;25.20;15.02;;;4.50;68.30;;;;;;5117415;28;20024;-61
2023/04/05 06:41:40;;;;;;;25.42;14.93;;;4.50;62.20;;;;;;5116376;28;20046;-61
2023/04/05 06:44:07;;;;;;;27.70;15.13;;;4.60;63.10;;;;;;5117401;28;20024;-61
2023/04/05 06:46:33;;;;;;;23.42;14.60;;;4.70;60.00;;;;;;5116527;28;20020;-61
2023/04/05 06:48:59;;;;;;;21.33;14.43;;;4.90;57.90;;;;;;5116314;28;20028;-64
2023/04/05 06:51:27;;;;;;;24.48;14.80;;;5.00;53.10;;;;;;5117150;28;20054;-62
2023/04/05 06:53:54;;;;;;;23.38;14.80;;;5.10;50.00;;;;;;5119961;28;20143;-63
2023/04/05 06:56:20;;;;;;;23.73;14.38;;;5.30;43.90;;;;;;5123273;28;20039;-62
2023/04/05 06:58:46;;;;;;;21.33;14.43;;;5.40;30.40;;;;;;5123877;28;20040;-62
2023/04/05 07:01:12;;;;;;;23.52;14.68;;;5.50;23.90;;;;;;5123963;27;20396;-62
2023/04/05 07:03:38;;;;;;;19.38;13.15;;;5.60;15.90;;;;;;5124160;27;20032;-62
2023/04/05 07:06:05;;;;;;;22.77;13.18;;;5.60;1.00;;;;;;5123466;28;20031;-62
2023/04/05 07:08:31;;;;;;;19.52;12.80;;;5.80;1.00;;;;;;5123611;27;20400;-63
2023/04/05 07:10:57;;;;;;;19.25;12.75;;;6.00;1.00;;;;;;5123101;28;20030;-63
2023/04/05 07:13:24;;;;;;;17.15;12.02;;;6.10;1.00;;;;;;5123004;28;20027;-62
2023/04/05 07:15:51;;;;;;;19.30;12.35;;;6.20;1.00;;;;;;5105995;28;20297;-62
2023/04/05 07:18:18;;;;;;;18.63;12.68;;;6.10;1.00;;;;;;5123841;27;20039;-62
2023/04/05 07:20:47;;;;;;;16.65;11.15;;;6.30;1.00;;;;;;5123404;28;20039;-63
2023/04/05 07:23:13;;;;;;;18.58;11.20;;;6.20;1.00;;;;;;5123679;27;20019;-62
2023/04/05 07:25:41;;;;;;;17.05;11.48;;;6.30;1.00;;;;;;5106146;28;20097;-62
2023/04/05 07:28:07;;;;;;;17.13;12.38;;;6.40;1.00;;;;;;5122974;28;20046;-61
2023/04/05 07:30:35;;;;;;;17.48;12.45;;;6.40;1.00;;;;;;5123230;28;20413;-62
2023/04/05 07:33:01;;;;;;;14.77;11.70;;;6.50;1.00;;;;;;5123987;28;20401;-62
2023/04/05 07:35:27;;;;;;;19.23;12.35;;;6.70;1.00;;;;;;5123581;28;20016;-62
2023/04/05 07:37:53;;;;;;;17.58;11.65;;;6.80;1.00;;;;;;5124116;27;20031;-63
2023/04/05 07:40:18;;;;;;;19.60;12.75;;;6.80;1.00;;;;;;5122952;28;20126;-63
2023/04/05 07:42:44;;;;;;;17.75;12.25;;;6.80;1.00;;;;;;5123468;28;20420;-62
2023/04/05 07:45:10;;;;;;;20.77;13.35;;;7.00;1.00;;;;;;5123669;28;20159;-62
2023/04/05 07:47:36;;;;;;;16.65;11.90;;;6.90;1.00;;;;;;5123466;28;20027;-62
2023/04/05 07:50:02;;;;;;;21.80;14.48;;;7.20;1.00;;;;;;5105931;28;20092;-62
2023/04/05 07:52:28;;;;;;;20.83;13.10;;;7.30;1.00;;;;;;5123595;27;20339;-62
2023/04/05 07:54:55;;;;;;;18.40;12.52;;;7.20;1.00;;;;;;5122778;28;20125;-62
2023/04/05 07:57:21;;;;;;;18.92;12.68;;;7.20;1.00;;;;;;5123616;28;20043;-62
2023/04/05 07:59:51;;;;;;;18.90;11.98;;;7.40;1.00;;;;;;5122693;28;20036;-63
2023/04/05 08:02:20;;;;;;;19.25;11.77;;;7.50;1.00;;;;;;5124351;27;20430;-62
2023/04/05 08:04:46;;;;;;;15.95;11.30;;;7.60;1.00;;;;;;5121671;28;20032;-62
2023/04/05 08:07:12;;;;;;;14.10;10.05;;;7.80;1.00;;;;;;5119801;28;20078;-62
2023/04/05 08:09:38;;;;;;;15.10;10.27;;;7.90;99.90;;;;;;5120267;28;20032;-62
2023/04/05 08:12:04;;;;;;;14.40;10.18;;;8.10;99.90;;;;;;5120074;28;20031;-62
2023/04/05 08:14:29;;;;;;;14.25;9.43;;;8.30;99.90;;;;;;5120132;28;20028;-62
2023/04/05 08:16:55;;;;;;;15.38;10.02;;;8.50;99.90;;;;;;5120077;28;20077;-62
2023/04/05 08:19:21;;;;;;;18.05;10.15;;;8.50;1.00;;;;;;5120043;28;20063;-62
2023/04/05 08:21:47;;;;;;;13.15;8.75;;;8.20;1.00;;;;;;5119953;28;20084;-62
2023/04/05 08:24:13;;;;;;;14.40;9.15;;;8.20;1.00;;;;;;5119954;28;20034;-62
2023/04/05 08:26:40;;;;;;;12.95;9.43;;;8.40;1.00;;;;;;5119071;28;20042;-62
2023/04/05 08:29:06;;;;;;;13.63;9.10;;;8.70;1.00;;;;;;5118991;28;20036;-63
2023/04/05 08:31:32;;;;;;;12.40;8.43;;;8.70;1.00;;;;;;5102180;28;20050;-62
2023/04/05 08:33:58;;;;;;;12.32;8.27;;;9.00;99.90;;;;;;5119758;28;20420;-61
2023/04/05 08:36:25;;;;;;;10.82;7.72;;;8.90;99.90;;;;;;5119798;28;20115;-62
2023/04/05 08:38:51;;;;;;;13.48;8.10;;;8.70;99.90;;;;;;5118918;28;20045;-62
2023/04/05 08:41:20;;;;;;;10.27;8.18;;;8.40;1.00;;;;;;5119407;28;20130;-61
2023/04/05 08:43:56;;;;;;;11.10;7.32;;;8.30;99.90;;;;;;5119444;28;20380;-61
2023/04/05 08:46:23;;;;;;;9.80;6.72;;;8.50;99.90;;;;;;5119443;28;20039;-62
2023/04/05 08:48:49;;;;;;;10.25;5.68;;;8.70;1.00;;;;;;5118472;28;20039;-61
2023/04/05 08:51:20;;;;;;;15.30;6.45;;;8.70;1.00;;;;;;5119462;28;20030;-62
2023/04/05 08:53:49;;;;;;;11.40;6.97;;;8.90;99.90;;;;;;5119292;28;20054;-62
2023/04/05 08:56:20;;;;;;;10.95;7.45;;;8.80;1.00;;;;;;5119282;28;20285;-62
2023/04/05 08:58:59;;;;;;;12.88;8.32;;;8.90;1.00;;;;;;5119488;28;20274;-62
2023/04/05 09:01:29;;;;;;;14.10;7.97;;;8.90;1.00;;;;;;5119446;28;20433;-62
2023/04/05 09:03:57;;;;;;;11.63;7.93;;;8.90;1.00;;;;;;5118465;28;20088;-63
2023/04/05 09:06:25;;;;;;;12.90;8.57;;;9.00;1.00;;;;;;5119001;28;20096;-62
2023/04/05 09:08:52;;;;;;;14.65;8.10;;;9.20;1.00;;;;;;5101156;28;20051;-62
2023/04/05 09:11:19;;;;;;;12.60;7.72;;;9.40;1.00;;;;;;5119013;28;20039;-62
2023/04/05 09:13:44;;;;;;;12.05;8.25;;;9.60;1.00;;;;;;5118941;28;20048;-62
2023/04/05 09:16:11;;;;;;;14.30;8.98;;;9.80;1.00;;;;;;5118634;27;20061;-62
2023/04/05 09:18:37;;;;;;;18.73;9.57;;;10.10;1.00;;;;;;5118743;28;20463;-62
2023/04/05 09:21:05;;;;;;;12.75;8.80;;;10.30;1.00;;;;;;5118797;28;20115;-62
2023/04/05 09:23:33;;;;;;;13.07;8.35;;;10.60;1.00;;;;;;5100959;28;20023;-62
2023/04/05 09:25:59;;;;;;;11.82;8.35;;;10.90;1.00;;;;;;5117882;28;20039;-62
2023/04/05 09:28:40;;;;;;;12.82;8.80;;;10.80;99.90;;;;;;5117794;28;20027;-63
2023/04/05 09:31:06;;;;;;;9.90;7.72;;;10.90;99.90;;;;;;5117924;28;20024;-62
2023/04/05 09:33:33;;;;;;;8.95;7.38;;;10.90;50.90;;;;;;5118331;28;20043;-61
2023/04/05 09:35:59;;;;;;;10.95;7.70;;;10.90;99.90;;;;;;5118691;28;20038;-62
2023/04/05 09:38:45;;;;;;;11.00;8.07;;;10.80;99.90;;;;;;5118462;28;20038;-62
2023/04/05 09:41:10;;;;;;;12.02;8.70;;;10.80;85.30;;;;;;5118093;28;20396;-62
2023/04/05 09:43:40;;;;;;;15.45;9.25;;;10.70;99.90;;;;;;5118461;28;20054;-62
2023/04/05 09:46:15;;;;;;;14.73;8.45;;;11.00;99.90;;;;;;5118042;28;20023;-61
2023/04/05 09:48:47;;;;;;;14.02;8.70;;;11.10;99.90;;;;;;5118193;28;20350;-62
2023/04/05 09:51:17;;;;;;;12.98;8.15;;;10.90;99.90;;;;;;5118489;28;20060;-63
2023/04/05 09:54:09;;;;;;;15.57;8.90;;;10.80;1.00;;;;;;5118202;28;20081;-63
2023/04/05 09:56:37;;;;;;;12.20;8.38;;;10.80;99.90;;;;;;5118173;28;20032;-63
2023/04/05 09:59:09;;;;;;;13.35;8.10;;;11.10;1.00;;;;;;5118067;28;20039;-63
2023/04/05 10:01:36;;;;;;;13.60;9.32;;;11.30;1.00;;;;;;5118105;28;20032;-62
2023/04/05 10:04:02;;;;;;;15.05;9.10;;;11.60;99.90;;;;;;5117940;28;20039;-61
2023/04/05 10:06:37;;;;;;;11.10;8.27;;;11.50;99.90;;;;;;5117919;28;20399;-62
2023/04/05 10:09:04;;;;;;;13.73;8.82;;;11.40;1.00;;;;;;5117084;28;20036;-61
2023/04/05 10:11:31;;;;;;;13.32;8.82;;;11.70;1.00;;;;;;5117749;28;20076;-62
2023/04/05 10:14:02;;;;;;;13.38;8.68;;;11.80;1.00;;;;;;5116875;28;20097;-62
2023/04/05 10:16:32;;;;;;;11.35;8.57;;;12.10;99.90;;;;;;5117765;28;20055;-62
2023/04/05 10:18:58;;;;;;;12.05;8.00;;;12.00;1.00;;;;;;5117952;28;20030;-62
2023/04/05 10:21:30;;;;;;;10.93;8.07;;;12.00;1.00;;;;;;5117853;28;20111;-62
2023/04/05 10:24:16;;;;;;;13.18;8.40;;;12.10;1.00;;;;;;5117691;28;20346;-62
2023/04/05 10:26:58;;;;;;;12.13;8.57;;;12.30;99.90;;;;;;5117662;28;20036;-62
2023/04/05 10:29:33;;;;;;;11.98;8.23;;;12.10;1.00;;;;;;5116122;28;20037;-62
2023/04/05 10:32:12;;;;;;;12.50;8.52;;;12.20;1.00;;;;;;5117334;28;20043;-61
2023/04/05 10:34:47;;;;;;;12.48;8.63;;;12.70;1.00;;;;;;5118090;28;20034;-62
2023/04/05 10:37:35;;;;;;;10.98;8.55;;;12.70;99.90;;;;;;5117455;28;20384;-63
2023/04/05 10:40:07;;;;;;;13.23;8.75;;;13.00;99.90;;;;;;5118173;28;20405;-61
2023/04/05 10:42:42;;;;;;;13.55;9.00;;;12.90;39.20;;;;;;5116519;28;20416;-62
2023/04/05 10:45:11;;;;;;;13.88;8.88;;;13.80;99.90;;;;;;5117191;28;20093;-62
2023/04/05 10:47:53;;;;;;;13.50;9.25;;;14.20;1.00;;;;;;5116731;28;20028;-63
2023/04/05 10:50:22;;;;;;;13.18;8.85;;;14.40;1.00;;;;;;5117928;28;20084;-62
2023/04/05 10:52:52;;;;;;;13.45;9.27;;;15.00;99.90;;;;;;5117464;28;20035;-63
2023/04/05 10:55:18;;;;;;;11.07;8.52;;;15.10;99.90;;;;;;5117338;28;20031;-63
2023/04/05 10:57:46;;;;;;;12.48;9.13;;;15.30;99.90;;;;;;5117251;28;20024;-62
2023/04/05 11:00:13;;;;;;;12.27;8.88;;;16.10;99.90;;;;;;5117589;28;20035;-63
2023/04/05 11:02:40;;;;;;;11.88;9.10;;;17.00;1.00;;;;;;5116943;28;20023;-63
2023/04/05 11:05:26;;;;;;;10.25;8.48;;;18.30;1.00;;;;;;5117647;28;20031;-63
2023/04/05 11:07:55;;;;;;;10.45;8.60;;;18.80;1.00;;;;;;5117245;28;20043;-60
2023/04/05 11:10:22;;;;;;;13.68;9.20;;;19.70;1.00;;;;;;5116865;28;20252;-62
2023/04/05 11:12:48;;;;;;;13.25;9.40;;;19.60;1.00;;;;;;5116332;28;20385;-62
2023/04/05 11:15:26;;;;;;;10.60;8.05;;;20.10;1.00;;;;;;5116061;28;20032;-62
2023/04/05 11:18:07;;;;;;;12.57;9.38;;;20.10;99.90;;;;;;5116174;28;20042;-62
2023/04/05 11:20:54;;;;;;;10.35;8.13;;;20.80;99.90;;;;;;5116665;28;20031;-62
2023/04/05 11:23:23;;;;;;;11.80;8.48;;;21.70;99.90;;;;;;5116717;28;20086;-62
2023/04/05 11:25:58;;;;;;;14.48;9.07;;;22.30;99.90;;;;;;5116733;28;20350;-62
2023/04/05 11:28:36;;;;;;;11.15;9.43;;;23.20;99.90;;;;;;5116950;28;20281;-62
2023/04/05 11:31:19;;;;;;;11.13;9.57;;;23.60;99.90;;;;;;5115813;28;20031;-62
2023/04/05 11:33:45;;;;;;;11.57;9.50;;;23.50;99.90;;;;;;5116148;28;20035;-62
2023/04/05 11:36:15;;;;;;;10.60;9.10;;;22.10;99.90;;;;;;5116834;28;20028;-62
2023/04/05 11:38:44;;;;;;;10.23;8.57;;;22.70;99.90;;;;;;5116753;28;20115;-62
2023/04/05 11:41:19;;;;;;;12.07;9.30;;;22.10;99.90;;;;;;5119710;28;20119;-62
2023/04/05 11:43:51;;;;;;;12.48;9.50;;;20.80;99.90;;;;;;5120003;28;20051;-62
2023/04/05 11:46:20;;;;;;;11.02;8.65;;;20.70;99.90;;;;;;5102863;28;20031;-63
2023/04/05 11:48:51;;;;;;;11.20;9.23;;;21.90;99.90;;;;;;5120298;28;20122;-62
2023/04/05 11:51:20;;;;;;;11.33;9.47;;;21.40;99.90;;;;;;5119518;28;20032;-62
2023/04/05 11:53:46;;;;;;;11.65;9.70;;;22.90;99.90;;;;;;5119728;28;20028;-62
2023/04/05 11:56:14;;;;;;;13.93;9.40;;;24.00;99.90;;;;;;5120094;28;20039;-63
2023/04/05 11:58:41;;;;;;;13.23;9.70;;;23.80;99.90;;;;;;5119708;28;20043;-64
2023/04/05 12:01:08;;;;;;;11.88;9.93;;;21.30;99.90;;;;;;5119769;28;20423;-63
2023/04/05 12:03:35;;;;;;;10.93;9.00;;;18.90;99.90;;;;;;5120029;28;20024;-63
2023/04/05 12:06:03;;;;;;;11.27;8.30;;;17.30;99.90;;;;;;5120200;28;20032;-62
2023/04/05 12:08:49;;;;;;;13.38;9.77;;;18.30;99.90;;;;;;5119967;28;20423;-62
2023/04/05 12:11:22;;;;;;;11.45;9.75;;;18.60;99.90;;;;;;5120179;28;20028;-63
2023/04/05 12:13:48;;;;;;;12.45;9.05;;;18.40;99.90;;;;;;5120274;28;20296;-62
2023/04/05 12:16:14;;;;;;;11.02;9.52;;;17.80;99.90;;;;;;5120112;28;20027;-62
2023/04/05 12:18:40;;;;;;;11.23;9.00;;;18.60;99.90;;;;;;5120199;28;20307;-62
2023/04/05 12:21:08;;;;;;;11.20;8.45;;;19.50;99.90;;;;;;5119859;28;20036;-62
2023/04/05 12:23:35;;;;;;;10.77;9.20;;;21.40;99.90;;;;;;5119947;28;20345;-62
2023/04/05 12:26:03;;;;;;;11.85;8.70;;;20.40;99.90;;;;;;5119908;28;20087;-62
2023/04/05 12:28:53;;;;;;;13.15;8.88;;;19.70;99.90;;;;;;5119696;28;20031;-62
2023/04/05 12:31:44;;;;;;;11.63;9.43;;;19.70;99.90;;;;;;5119817;28;20030;-62
2023/04/05 12:34:12;;;;;;;12.55;8.85;;;21.00;99.90;;;;;;5119697;28;20101;-62
2023/04/05 12:36:42;;;;;;;12.10;9.40;;;21.60;99.90;;;;;;5119660;28;20023;-63
2023/04/05 12:39:09;;;;;;;10.02;8.55;;;22.40;99.90;;;;;;5119659;28;20032;-63
2023/04/05 12:41:36;;;;;;;10.55;9.05;;;23.90;99.90;;;;;;5119392;28;20075;-63
2023/04/05 12:44:14;;;;;;;12.48;9.82;;;24.90;99.90;;;;;;5119616;28;20027;-63
2023/04/05 12:46:45;;;;;;;11.18;9.82;;;23.50;99.90;;;;;;5119412;28;20342;-64
2023/04/05 12:49:12;;;;;;;11.23;9.75;;;20.80;99.90;;;;;;5119402;27;20031;-63
2023/04/05 12:51:42;;;;;;;13.18;10.05;;;19.20;99.90;;;;;;5118285;28;20304;-62
2023/04/05 12:54:19;;;;;;;10.98;9.25;;;19.30;99.90;;;;;;5118509;28;20055;-63
2023/04/05 12:56:45;;;;;;;11.93;9.23;;;19.90;99.90;;;;;;5119190;27;20027;-63
2023/04/05 12:59:11;;;;;;;11.75;9.60;;;21.50;99.90;;;;;;5118467;28;20048;-62